createdAt,value
2022-11-05T00:00:49.142Z,100257.94
2022-11-05T00:03:34.624Z,100260.72
2022-11-05T00:06:20.789Z,100267.03
2022-11-05T00:09:06.429Z,100267.22
2022-11-05T00:11:52.268Z,100272.84
2022-11-05T00:14:37.721Z,100277.16
2022-11-05T00:17:04.884Z,100286.91
2022-11-05T00:19:31.985Z,100282.22
2022-11-05T00:22:18.091Z,100283.06
2022-11-05T00:25:03.564Z,100284.19
2022-11-05T00:27:33.157Z,100282.22
2022-11-05T00:30:00.249Z,100284.84
2022-11-05T00:32:27.369Z,100286.53
2022-11-05T00:34:54.455Z,100295.16
2022-11-05T00:37:21.525Z,100291.25
2022-11-05T00:39:48.622Z,100299.31
2022-11-05T00:42:34.509Z,100303.03
2022-11-05T00:45:01.641Z,100299.50
2022-11-05T00:48:07.908Z,100300.34
2022-11-05T00:50:35.140Z,100305.59
2022-11-05T00:53:02.794Z,100303.13
2022-11-05T00:55:37.346Z,100306.72
2022-11-05T00:58:09.857Z,100317.78
2022-11-05T01:00:38.220Z,100313.38
2022-11-05T01:03:08.883Z,100318.72
2022-11-05T01:05:56.698Z,100319.69
2022-11-05T01:08:25.707Z,100321.69
2022-11-05T01:10:56.584Z,100325.53
2022-11-05T01:13:26.433Z,100324.59
2022-11-05T01:15:53.704Z,100331.47
2022-11-05T01:18:21.441Z,100333.66
2022-11-05T01:20:48.821Z,100333.44
2022-11-05T01:23:16.586Z,100333.66
2022-11-05T01:25:44.370Z,100332.03
2022-11-05T01:28:11.651Z,100328.66
2022-11-05T01:30:38.847Z,100334.84
2022-11-05T01:33:06.002Z,100329.78
2022-11-05T01:35:33.181Z,100342.97
2022-11-05T01:38:00.248Z,100337.66
2022-11-05T01:40:27.430Z,100330.78
2022-11-05T01:42:54.526Z,100329.00
2022-11-05T01:45:27.019Z,100345.69
2022-11-05T01:48:15.767Z,100340.72
2022-11-05T01:50:42.835Z,100343.72
2022-11-05T01:53:13.761Z,100347.19
2022-11-05T01:55:52.080Z,100338.53
2022-11-05T01:58:21.732Z,100352.50
2022-11-05T02:00:48.850Z,100354.47
2022-11-05T02:03:16.608Z,100354.53
2022-11-05T02:05:44.247Z,100355.38
2022-11-05T02:08:17.959Z,100359.16
2022-11-05T02:10:45.687Z,100370.66
2022-11-05T02:13:13.075Z,100370.75
2022-11-05T02:15:52.202Z,100382.00
2022-11-05T02:18:41.127Z,100377.00
2022-11-05T02:21:26.926Z,100375.47
2022-11-05T02:24:03.270Z,100382.78
2022-11-05T02:26:50.223Z,100398.69
2022-11-05T02:29:37.419Z,100396.31
2022-11-05T02:32:46.140Z,100393.69
2022-11-05T02:35:36.429Z,100401.75
2022-11-05T02:38:06.330Z,100397.59
2022-11-05T02:41:28.017Z,100402.84
2022-11-05T02:44:13.796Z,100404.88
2022-11-05T02:46:58.084Z,100413.59
2022-11-05T02:49:46.351Z,100411.72
2022-11-05T02:52:33.203Z,100410.28
2022-11-05T02:55:27.823Z,100413.16
2022-11-05T02:57:55.009Z,100417.63
2022-11-05T03:00:45.590Z,100418.81
2022-11-05T03:03:18.693Z,100416.88
2022-11-05T03:06:14.304Z,100419.75
2022-11-05T03:09:04.220Z,100430.38
2022-11-05T03:11:33.195Z,100431.47
2022-11-05T03:14:23.180Z,100440.47
2022-11-05T03:17:01.239Z,100440.63
2022-11-05T03:19:39.131Z,100435.41
2022-11-05T03:22:13.254Z,100442.50
2022-11-05T03:24:43.527Z,100442.66
2022-11-05T03:27:16.032Z,100452.31
2022-11-05T03:29:46.583Z,100459.34
2022-11-05T03:32:15.702Z,100461.19
2022-11-05T03:34:46.912Z,100459.41
2022-11-05T03:37:14.901Z,100461.81
2022-11-05T03:39:44.695Z,100460.13
2022-11-05T03:42:14.446Z,100463.81
2022-11-05T03:44:55.452Z,100463.97
2022-11-05T03:47:25.775Z,100469.22
2022-11-05T03:50:07.302Z,100469.31
2022-11-05T03:52:39.994Z,100475.31
2022-11-05T03:55:07.132Z,100478.72
2022-11-05T03:57:37.346Z,100482.41
2022-11-05T04:00:08.262Z,100484.00
2022-11-05T04:02:35.461Z,100487.44
2022-11-05T04:05:02.711Z,100487.56
2022-11-05T04:08:13.885Z,100500.16
2022-11-05T04:11:00.351Z,100502.84
2022-11-05T04:13:27.905Z,100507.00
2022-11-05T04:16:15.263Z,100507.16
2022-11-05T04:18:42.891Z,100518.91
2022-11-05T04:21:29.151Z,100514.59
2022-11-05T04:24:08.534Z,100519.75
2022-11-05T04:26:37.698Z,100519.66
2022-11-05T04:29:23.721Z,100520.72
2022-11-05T04:31:51.263Z,100524.59
2022-11-05T04:34:24.559Z,100523.91
2022-11-05T04:36:53.134Z,100528.28
2022-11-05T04:39:21.180Z,100529.38
2022-11-05T04:41:48.719Z,100535.38
2022-11-05T04:44:16.705Z,100537.94
2022-11-05T04:46:43.894Z,100535.22
2022-11-05T04:49:11.082Z,100535.31
2022-11-05T04:51:38.226Z,100529.97
2022-11-05T04:54:05.343Z,100538.06
2022-11-05T04:56:32.469Z,100538.31
2022-11-05T04:58:59.675Z,100534.75
2022-11-05T05:01:26.834Z,100534.00
2022-11-05T05:03:54.790Z,100538.38
2022-11-05T05:06:22.567Z,100535.69
2022-11-05T05:08:51.174Z,100544.47
2022-11-05T05:11:20.286Z,100549.09
2022-11-05T05:13:47.973Z,100538.66
2022-11-05T05:16:26.367Z,100540.38
2022-11-05T05:18:54.113Z,100545.53
2022-11-05T05:21:40.541Z,100536.63
2022-11-05T05:24:10.491Z,100539.22
2022-11-05T05:26:42.505Z,100551.50
2022-11-05T05:29:10.057Z,100551.53
2022-11-05T05:31:37.424Z,100553.03
2022-11-05T05:34:05.323Z,100558.44
2022-11-05T05:36:32.811Z,100562.91
2022-11-05T05:38:59.915Z,100566.50
2022-11-05T05:41:27.101Z,100578.69
2022-11-05T05:43:54.246Z,100574.50
2022-11-05T05:46:21.395Z,100581.75
2022-11-05T05:48:50.298Z,100588.34
2022-11-05T05:51:17.807Z,100589.28
2022-11-05T05:53:45.176Z,100586.72
2022-11-05T05:56:14.913Z,100594.78
2022-11-05T05:58:42.151Z,100593.09
2022-11-05T06:01:18.276Z,100597.41
2022-11-05T06:03:46.017Z,100601.72
2022-11-05T06:06:14.159Z,100612.38
2022-11-05T06:08:42.201Z,100614.63
2022-11-05T06:11:09.687Z,100620.72
2022-11-05T06:13:37.261Z,100620.13
2022-11-05T06:16:06.798Z,100622.03
2022-11-05T06:18:35.043Z,100623.06
2022-11-05T06:21:05.989Z,100629.91
2022-11-05T06:23:34.242Z,100646.41
2022-11-05T06:26:05.938Z,100649.09
2022-11-05T06:28:33.604Z,100655.34
2022-11-05T06:31:00.740Z,100657.31
2022-11-05T06:33:27.987Z,100655.84
2022-11-05T06:35:58.845Z,100660.28
2022-11-05T06:38:25.933Z,100668.06
2022-11-05T06:40:53.148Z,100666.66
2022-11-05T06:43:20.267Z,100667.41
2022-11-05T06:45:47.368Z,100667.41
2022-11-05T06:48:14.502Z,100679.63
2022-11-05T06:50:46.331Z,100676.13
2022-11-05T06:53:13.916Z,100679.44
2022-11-05T06:55:41.227Z,100687.69
2022-11-05T06:58:08.351Z,100689.50
2022-11-05T07:00:35.621Z,100693.91
2022-11-05T07:03:10.777Z,100696.59
2022-11-05T07:05:42.414Z,100694.19
2022-11-05T07:08:09.497Z,100695.16
2022-11-05T07:10:36.658Z,100716.06
2022-11-05T07:13:08.082Z,100702.91
2022-11-05T07:15:36.568Z,100703.63
2022-11-05T07:18:04.710Z,100706.03
2022-11-05T07:20:34.120Z,100712.03
2022-11-05T07:23:06.770Z,100720.69
2022-11-05T07:25:34.182Z,100726.06
2022-11-05T07:28:02.161Z,100737.38
2022-11-05T07:30:29.710Z,100741.78
2022-11-05T07:32:57.014Z,100735.81
2022-11-05T07:35:24.447Z,100739.44
2022-11-05T07:37:53.955Z,100742.09
2022-11-05T07:40:22.676Z,100741.59
2022-11-05T07:42:51.858Z,100736.31
2022-11-05T07:45:19.436Z,100733.69
2022-11-05T07:47:57.764Z,100729.09
2022-11-05T07:50:26.783Z,100727.25
2022-11-05T07:52:54.100Z,100727.88
2022-11-05T07:55:21.228Z,100733.13
2022-11-05T07:57:49.880Z,100734.75
2022-11-05T08:00:21.621Z,100742.53
2022-11-05T08:03:17.715Z,100741.50
2022-11-05T08:05:46.214Z,100755.41
2022-11-05T08:08:22.060Z,100745.56
2022-11-05T08:10:49.194Z,100759.38
2022-11-05T08:13:16.615Z,100759.28
2022-11-05T08:15:44.461Z,100769.06
2022-11-05T08:18:14.198Z,100767.50
2022-11-05T08:20:42.810Z,100769.25
2022-11-05T08:23:10.404Z,100763.06
2022-11-05T08:25:37.976Z,100771.69
2022-11-05T08:28:11.176Z,100773.56
2022-11-05T08:30:38.336Z,100784.94
2022-11-05T08:33:08.090Z,100782.31
2022-11-05T08:35:36.240Z,100800.56
2022-11-05T08:38:05.133Z,100798.72
2022-11-05T08:40:34.680Z,100797.69
2022-11-05T08:43:03.287Z,100804.88
2022-11-05T08:45:31.106Z,100801.50
2022-11-05T08:48:01.239Z,100799.53
2022-11-05T08:50:28.784Z,100795.66
2022-11-05T08:52:55.978Z,100800.91
2022-11-05T08:55:23.243Z,100800.69
2022-11-05T08:57:57.558Z,100804.72
2022-11-05T09:00:25.295Z,100805.50
2022-11-05T09:02:52.404Z,100809.53
2022-11-05T09:05:19.497Z,100815.28
2022-11-05T09:07:46.809Z,100811.50
2022-11-05T09:10:13.924Z,100818.22
2022-11-05T09:12:41.086Z,100818.94
2022-11-05T09:15:09.187Z,100823.75
2022-11-05T09:17:36.326Z,100829.53
2022-11-05T09:20:04.486Z,100834.34
2022-11-05T09:22:31.595Z,100826.88
2022-11-05T09:24:58.729Z,100826.53
2022-11-05T09:27:26.450Z,100842.81
2022-11-05T09:29:53.530Z,100834.59
2022-11-05T09:32:21.051Z,100836.78
2022-11-05T09:34:48.992Z,100842.44
2022-11-05T09:37:16.148Z,100845.44
2022-11-05T09:39:43.210Z,100851.31
2022-11-05T09:42:13.567Z,100856.28
2022-11-05T09:44:47.630Z,100851.56
2022-11-05T09:47:19.861Z,100858.47
2022-11-05T09:49:50.231Z,100857.22
2022-11-05T09:52:25.950Z,100858.00
2022-11-05T09:54:54.258Z,100860.31
2022-11-05T09:57:52.325Z,100861.63
2022-11-05T10:00:19.416Z,100864.41
2022-11-05T10:03:04.866Z,100865.94
2022-11-05T10:05:32.839Z,100863.16
2022-11-05T10:08:05.039Z,100874.16
2022-11-05T10:10:42.005Z,100867.56
2022-11-05T10:13:29.286Z,100869.53
2022-11-05T10:16:08.469Z,100869.16
2022-11-05T10:18:41.608Z,100874.94
2022-11-05T10:21:15.586Z,100870.31
2022-11-05T10:23:43.814Z,100873.53
2022-11-05T10:26:14.801Z,100872.00
2022-11-05T10:28:41.938Z,100875.22
2022-11-05T10:31:13.029Z,100885.25
2022-11-05T10:33:43.752Z,100885.13
2022-11-05T10:36:15.371Z,100887.53
2022-11-05T10:38:42.499Z,100891.59
2022-11-05T10:41:30.480Z,100893.84
2022-11-05T10:44:18.924Z,100897.41
2022-11-05T10:46:54.345Z,100891.31
2022-11-05T10:49:49.382Z,100908.69
2022-11-05T10:52:25.677Z,100910.88
2022-11-05T10:54:56.043Z,100914.50
2022-11-05T10:57:29.163Z,100916.59
2022-11-05T11:00:18.125Z,100916.22
2022-11-05T11:02:55.971Z,100914.31
2022-11-05T11:05:30.626Z,100905.50
2022-11-05T11:08:23.730Z,100914.78
2022-11-05T11:10:51.939Z,100904.81
2022-11-05T11:13:40.570Z,100902.91
2022-11-05T11:16:19.523Z,100909.69
2022-11-05T11:18:46.643Z,100910.56
2022-11-05T11:21:19.953Z,100901.94
2022-11-05T11:24:04.274Z,100911.97
2022-11-05T11:26:34.190Z,100906.97
2022-11-05T11:29:06.699Z,100907.63
2022-11-05T11:31:38.973Z,100911.84
2022-11-05T11:34:13.062Z,100908.28
2022-11-05T11:36:45.715Z,100911.72
2022-11-05T11:39:19.982Z,100907.47
2022-11-05T11:41:51.265Z,100911.66
2022-11-05T11:44:21.081Z,100909.03
2022-11-05T11:47:01.936Z,100916.56
2022-11-05T11:49:50.015Z,100909.38
2022-11-05T11:52:29.157Z,100908.66
2022-11-05T11:55:11.598Z,100923.16
2022-11-05T11:57:50.322Z,100927.41
2022-11-05T12:00:18.702Z,100923.16
2022-11-05T12:03:04.518Z,100921.53
2022-11-05T12:05:34.362Z,100915.72
2022-11-05T12:08:13.256Z,100917.75
2022-11-05T12:11:13.935Z,100912.13
2022-11-05T12:13:50.077Z,100921.16
2022-11-05T12:16:32.867Z,100927.91
2022-11-05T12:19:12.319Z,100913.09
2022-11-05T12:21:53.051Z,100919.97
2022-11-05T12:24:20.911Z,100915.28
2022-11-05T12:26:59.812Z,100916.16
2022-11-05T12:29:46.669Z,100914.63
2022-11-05T12:32:46.423Z,100926.34
2022-11-05T12:35:47.385Z,100912.44
2022-11-05T12:38:37.026Z,100921.63
2022-11-05T12:41:51.917Z,100925.44
2022-11-05T12:44:25.089Z,100920.53
2022-11-05T12:47:06.972Z,100913.63
2022-11-05T12:49:42.842Z,100917.53
2022-11-05T12:52:40.697Z,100914.69
2022-11-05T12:55:16.665Z,100917.25
2022-11-05T12:57:46.364Z,100930.13
2022-11-05T13:00:19.541Z,100921.38
2022-11-05T13:03:06.871Z,100922.34
2022-11-05T13:05:40.201Z,100925.09
2022-11-05T13:08:09.310Z,100928.56
2022-11-05T13:10:55.907Z,100930.75
2022-11-05T13:13:43.010Z,100934.69
2022-11-05T13:16:36.465Z,100927.75
2022-11-05T13:19:32.287Z,100934.59
2022-11-05T13:22:36.993Z,100938.41
2022-11-05T13:25:10.898Z,100935.38
2022-11-05T13:27:47.984Z,100940.72
2022-11-05T13:30:23.292Z,100940.72
2022-11-05T13:32:56.803Z,100945.16
2022-11-05T13:35:40.079Z,100944.88
2022-11-05T13:38:27.975Z,100957.22
2022-11-05T13:41:17.499Z,100958.72
2022-11-05T13:43:55.447Z,100951.06
2022-11-05T13:46:43.382Z,100960.56
2022-11-05T13:49:19.024Z,100965.00
2022-11-05T13:51:53.063Z,100961.53
2022-11-05T13:54:46.086Z,100964.19
2022-11-05T13:57:34.186Z,100960.09
2022-11-05T14:00:11.495Z,100970.06
2022-11-05T14:02:48.341Z,100964.09
2022-11-05T14:05:31.520Z,100960.56
2022-11-05T14:08:00.650Z,100960.16
2022-11-05T14:10:39.689Z,100957.81
2022-11-05T14:13:20.983Z,100969.78
2022-11-05T14:16:07.615Z,100974.28
2022-11-05T14:18:42.390Z,100974.97
2022-11-05T14:21:27.576Z,100976.78
2022-11-05T14:23:57.160Z,100975.28
2022-11-05T14:26:26.231Z,100974.06
2022-11-05T14:28:58.981Z,100970.56
2022-11-05T14:32:08.287Z,100975.72
2022-11-05T14:34:54.265Z,100966.63
2022-11-05T14:37:23.917Z,100969.28
2022-11-05T14:39:51.252Z,100968.13
2022-11-05T14:42:31.443Z,100972.53
2022-11-05T14:45:02.551Z,100982.88
2022-11-05T14:47:32.938Z,100980.72
2022-11-05T14:50:08.855Z,100985.03
2022-11-05T14:52:37.634Z,100993.56
2022-11-05T14:55:05.674Z,100992.06
2022-11-05T14:57:41.952Z,100999.09
2022-11-05T15:00:31.310Z,100999.00
2022-11-05T15:03:04.104Z,101000.81
2022-11-05T15:05:31.080Z,100999.13
2022-11-05T15:07:58.630Z,100996.38
2022-11-05T15:10:31.274Z,100999.34
2022-11-05T15:13:05.666Z,101003.13
2022-11-05T15:15:41.726Z,101000.84
2022-11-05T15:18:28.864Z,101002.63
2022-11-05T15:20:58.700Z,101011.25
2022-11-05T15:23:29.951Z,101012.09
2022-11-05T15:26:08.750Z,101016.63
2022-11-05T15:28:42.654Z,101011.34
2022-11-05T15:31:12.619Z,101007.78
2022-11-05T15:33:44.838Z,101009.84
2022-11-05T15:36:28.889Z,101013.31
2022-11-05T15:39:27.381Z,101015.13
2022-11-05T15:41:44.729Z,101010.69
2022-11-05T15:44:29.874Z,101011.63
2022-11-05T15:47:08.822Z,101012.63
2022-11-05T15:49:36.002Z,101013.31
2022-11-05T15:52:03.106Z,101021.41
2022-11-05T15:54:31.047Z,101025.91
2022-11-05T15:56:59.517Z,101017.00
2022-11-05T15:59:28.758Z,101022.63
2022-11-05T16:02:26.529Z,101017.81
2022-11-05T16:04:53.713Z,101023.78
2022-11-05T16:07:21.193Z,101020.56
2022-11-05T16:09:54.666Z,101024.34
2022-11-05T16:12:33.664Z,101018.25
2022-11-05T16:15:08.051Z,101027.06
2022-11-05T16:17:37.823Z,101023.06
2022-11-05T16:20:24.475Z,101025.03
2022-11-05T16:22:54.213Z,101030.22
2022-11-05T16:25:25.460Z,101023.31
2022-11-05T16:27:52.575Z,101029.94
2022-11-05T16:30:20.217Z,101029.75
2022-11-05T16:32:47.560Z,101031.69
2022-11-05T16:35:25.041Z,101036.81
2022-11-05T16:37:52.745Z,101023.81
2022-11-05T16:40:22.727Z,101034.66
2022-11-05T16:42:51.563Z,101033.97
2022-11-05T16:45:21.118Z,101042.66
2022-11-05T16:47:48.788Z,101037.69
2022-11-05T16:50:24.130Z,101049.16
2022-11-05T16:52:51.769Z,101048.41
2022-11-05T16:55:19.247Z,101046.78
2022-11-05T16:57:49.702Z,101060.78
2022-11-05T17:00:18.903Z,101062.81
2022-11-05T17:02:46.180Z,101061.19
2022-11-05T17:05:17.345Z,101063.50
2022-11-05T17:07:44.513Z,101069.00
2022-11-05T17:10:11.670Z,101073.03
2022-11-05T17:12:38.780Z,101080.38
2022-11-05T17:15:25.045Z,101091.00
2022-11-05T17:17:53.542Z,101095.59
2022-11-05T17:20:38.251Z,101093.13
2022-11-05T17:23:05.919Z,101095.66
2022-11-05T17:25:33.459Z,101093.13
2022-11-05T17:28:00.614Z,101097.91
2022-11-05T17:30:27.817Z,101104.09
2022-11-05T17:32:55.108Z,101108.56
2022-11-05T17:35:22.493Z,101105.16
2022-11-05T17:37:49.892Z,101099.78
2022-11-05T17:40:19.090Z,101104.25
2022-11-05T17:42:46.917Z,101091.75
2022-11-05T17:45:14.222Z,101096.53
2022-11-05T17:47:42.189Z,101108.28
2022-11-05T17:50:11.839Z,101110.97
2022-11-05T17:52:39.001Z,101110.34
2022-11-05T17:55:08.448Z,101112.44
2022-11-05T17:57:35.535Z,101115.09
2022-11-05T18:00:02.665Z,101118.22
2022-11-05T18:02:29.991Z,101114.03
2022-11-05T18:04:57.200Z,101122.16
2022-11-05T18:07:24.316Z,101126.13
2022-11-05T18:09:51.473Z,101124.72
2022-11-05T18:12:18.586Z,101120.53
2022-11-05T18:14:45.751Z,101124.09
2022-11-05T18:17:12.866Z,101123.38
2022-11-05T18:19:40.186Z,101120.03
2022-11-05T18:22:07.307Z,101129.63
2022-11-05T18:24:34.517Z,101123.66
2022-11-05T18:27:01.672Z,101116.56
2022-11-05T18:29:28.847Z,101116.78
2022-11-05T18:31:56.004Z,101110.94
2022-11-05T18:34:23.152Z,101114.50
2022-11-05T18:36:56.058Z,101113.78
2022-11-05T18:39:23.874Z,101114.63
2022-11-05T18:41:51.015Z,101109.09
2022-11-05T18:44:22.586Z,101104.69
2022-11-05T18:46:58.725Z,101112.72
2022-11-05T18:49:26.548Z,101115.34
2022-11-05T18:51:53.952Z,101111.16
2022-11-05T18:54:21.056Z,101119.97
2022-11-05T18:56:48.167Z,101119.19
2022-11-05T19:02:04.664Z,101115.56
2022-11-05T19:04:31.857Z,101123.81
2022-11-05T19:07:03.279Z,101123.81
2022-11-05T19:09:31.972Z,101129.69
2022-11-05T19:11:59.078Z,101126.28
2022-11-05T19:14:26.168Z,101125.91
2022-11-05T19:16:53.301Z,101125.00
2022-11-05T19:19:20.370Z,101121.81
2022-11-05T19:21:47.566Z,101123.75
2022-11-05T19:24:17.759Z,101124.75
2022-11-05T19:26:44.867Z,101132.69
2022-11-05T19:29:12.139Z,101125.75
2022-11-05T19:31:39.285Z,101124.81
2022-11-05T19:34:06.432Z,101121.41
2022-11-05T19:36:34.190Z,101131.72
2022-11-05T19:39:06.304Z,101130.88
2022-11-05T19:41:33.553Z,101132.97
2022-11-05T19:44:03.714Z,101129.78
2022-11-05T19:46:31.344Z,101124.44
2022-11-05T19:49:00.349Z,101133.31
2022-11-05T19:51:29.343Z,101141.06
2022-11-05T19:53:57.067Z,101143.59
2022-11-05T19:56:27.054Z,101139.47
2022-11-05T19:58:54.338Z,101133.50
2022-11-05T20:01:22.929Z,101136.28
2022-11-05T20:03:50.437Z,101138.63
2022-11-05T20:06:20.679Z,101135.03
2022-11-05T20:09:19.398Z,101129.78
2022-11-05T20:11:39.933Z,101135.03
2022-11-05T20:14:07.640Z,101137.13
2022-11-05T20:16:39.921Z,101137.25
2022-11-05T20:19:11.736Z,101140.81
2022-11-05T20:21:39.383Z,101140.00
2022-11-05T20:24:07.405Z,101145.44
2022-11-05T20:26:35.047Z,101147.44
2022-11-05T20:29:02.185Z,101147.25
2022-11-05T20:31:29.243Z,101146.44
2022-11-05T20:33:56.657Z,101150.06
2022-11-05T20:36:25.462Z,101152.06
2022-11-05T20:38:55.377Z,101156.81
2022-11-05T20:41:22.738Z,101157.19
2022-11-05T20:43:50.053Z,101153.22
2022-11-05T20:46:19.197Z,101155.59
2022-11-05T20:48:46.311Z,101161.75
2022-11-05T20:51:18.815Z,101171.88
2022-11-05T20:53:46.575Z,101169.88
2022-11-05T20:56:22.726Z,101162.72
2022-11-05T20:58:50.329Z,101157.38
2022-11-05T21:01:18.239Z,101150.34
2022-11-05T21:03:46.833Z,101149.44
2022-11-05T21:06:14.055Z,101149.50
2022-11-05T21:08:41.133Z,101153.97
2022-11-05T21:11:08.842Z,101153.31
2022-11-05T21:13:36.542Z,101157.84
2022-11-05T21:16:05.602Z,101158.47
2022-11-05T21:18:35.047Z,101155.28
2022-11-05T21:21:07.107Z,101161.28
2022-11-05T21:23:34.474Z,101168.97
2022-11-05T21:26:06.401Z,101174.13
2022-11-05T21:28:34.087Z,101177.19
2022-11-05T21:31:02.778Z,101178.13
2022-11-05T21:33:30.205Z,101178.13
2022-11-05T21:35:57.706Z,101178.03
2022-11-05T21:38:25.313Z,101173.06
2022-11-05T21:40:52.614Z,101166.50
2022-11-05T21:43:19.752Z,101159.31
2022-11-05T21:45:46.896Z,101159.94
2022-11-05T21:48:15.141Z,101159.69
2022-11-05T21:51:01.584Z,101163.41
2022-11-05T21:53:46.960Z,101164.59
2022-11-05T21:56:39.879Z,101162.16
2022-11-05T21:59:25.682Z,101160.69
2022-11-05T22:02:01.210Z,101157.88
2022-11-05T22:04:39.442Z,101151.63
2022-11-05T22:07:08.000Z,101159.38
2022-11-05T22:09:35.206Z,101153.31
2022-11-05T22:12:02.319Z,101158.56
2022-11-05T22:14:29.942Z,101158.63
2022-11-05T22:16:57.473Z,101163.97
2022-11-05T22:19:24.898Z,101155.31
2022-11-05T22:21:52.288Z,101157.78
2022-11-05T22:24:19.824Z,101156.94
2022-11-05T22:26:48.276Z,101149.97
2022-11-05T22:29:15.599Z,101150.03
2022-11-05T22:31:43.080Z,101160.50
2022-11-05T22:34:10.961Z,101148.66
2022-11-05T22:36:38.141Z,101152.13
2022-11-05T22:39:05.350Z,101151.13
2022-11-05T22:41:33.927Z,101145.88
2022-11-05T22:44:01.050Z,101150.09
2022-11-05T22:46:32.718Z,101142.22
2022-11-05T22:49:00.232Z,101148.31
2022-11-05T22:51:30.118Z,101143.94
2022-11-05T22:53:58.115Z,101149.16
2022-11-05T22:56:29.258Z,101157.84
2022-11-05T22:58:56.738Z,101153.63
2022-11-05T23:01:24.814Z,101150.63
2022-11-05T23:03:53.433Z,101157.66
2022-11-05T23:06:40.190Z,101152.75
2022-11-05T23:09:31.539Z,101160.25
2022-11-05T23:11:58.852Z,101154.19
2022-11-05T23:14:26.171Z,101149.03
2022-11-05T23:17:13.362Z,101158.69
2022-11-05T23:19:59.203Z,101153.28
2022-11-05T23:22:48.185Z,101153.09
2022-11-05T23:25:18.146Z,101161.94
2022-11-05T23:27:47.238Z,101150.66
2022-11-05T23:30:17.300Z,101157.22
2022-11-05T23:32:44.457Z,101148.66
2022-11-05T23:35:11.943Z,101153.50
2022-11-05T23:37:57.805Z,101156.13
2022-11-05T23:40:27.390Z,101151.22
2022-11-05T23:43:13.574Z,101140.91
2022-11-05T23:46:00.105Z,101141.88
2022-11-05T23:48:35.417Z,101137.25
2022-11-05T23:51:10.275Z,101135.25
2022-11-05T23:53:40.118Z,101136.63
2022-11-05T23:56:10.909Z,101130.22
2022-11-05T23:58:38.987Z,101145.06
